sensor_id;sensor_type;location;lat;lon;timestamp;P1;durP1;ratioP1;P2;durP2;ratioP2
78183;SDS011;67442;44.570;18.610;2023-05-09T00:00:07;12.90;;;6.38;;
78183;SDS011;67442;44.570;18.610;2023-05-09T00:02:37;18.10;;;6.43;;
78183;SDS011;67442;44.570;18.610;2023-05-09T00:05:04;15.50;;;6.18;;
78183;SDS011;67442;44.570;18.610;2023-05-09T00:07:32;13.13;;;6.57;;
78183;SDS011;67442;44.570;18.610;2023-05-09T00:09:59;15.77;;;6.70;;
78183;SDS011;67442;44.570;18.610;2023-05-09T00:12:26;13.20;;;6.30;;
78183;SDS011;67442;44.570;18.610;2023-05-09T00:14:53;11.60;;;6.32;;
78183;SDS011;67442;44.570;18.610;2023-05-09T00:17:22;16.88;;;6.20;;
78183;SDS011;67442;44.570;18.610;2023-05-09T00:19:53;13.32;;;6.30;;
78183;SDS011;67442;44.570;18.610;2023-05-09T00:22:24;14.80;;;6.13;;
78183;SDS011;67442;44.570;18.610;2023-05-09T00:24:52;11.85;;;6.13;;
78183;SDS011;67442;44.570;18.610;2023-05-09T00:27:23;12.35;;;5.75;;
78183;SDS011;67442;44.570;18.610;2023-05-09T00:29:50;11.10;;;6.10;;
78183;SDS011;67442;44.570;18.610;2023-05-09T00:32:18;11.82;;;6.05;;
78183;SDS011;67442;44.570;18.610;2023-05-09T00:34:45;13.27;;;6.60;;
78183;SDS011;67442;44.570;18.610;2023-05-09T00:37:12;12.00;;;6.07;;
78183;SDS011;67442;44.570;18.610;2023-05-09T00:39:39;14.27;;;6.35;;
78183;SDS011;67442;44.570;18.610;2023-05-09T00:42:06;15.38;;;6.40;;
78183;SDS011;67442;44.570;18.610;2023-05-09T00:44:38;12.43;;;5.50;;
78183;SDS011;67442;44.570;18.610;2023-05-09T00:47:05;15.85;;;6.45;;
78183;SDS011;67442;44.570;18.610;2023-05-09T00:49:32;15.10;;;7.25;;
78183;SDS011;67442;44.570;18.610;2023-05-09T00:51:58;10.05;;;6.03;;
78183;SDS011;67442;44.570;18.610;2023-05-09T00:54:31;13.25;;;6.57;;
78183;SDS011;67442;44.570;18.610;2023-05-09T00:56:58;10.82;;;6.20;;
78183;SDS011;67442;44.570;18.610;2023-05-09T00:59:26;14.05;;;6.18;;
78183;SDS011;67442;44.570;18.610;2023-05-09T01:01:57;12.60;;;6.03;;
78183;SDS011;67442;44.570;18.610;2023-05-09T01:04:24;13.45;;;6.25;;
78183;SDS011;67442;44.570;18.610;2023-05-09T01:07:03;9.70;;;6.03;;
78183;SDS011;67442;44.570;18.610;2023-05-09T01:18:07;9.45;;;6.07;;
78183;SDS011;67442;44.570;18.610;2023-05-09T01:20:42;9.88;;;5.93;;
78183;SDS011;67442;44.570;18.610;2023-05-09T01:32:13;9.98;;;6.07;;
78183;SDS011;67442;44.570;18.610;2023-05-09T01:34:44;11.73;;;5.72;;
78183;SDS011;67442;44.570;18.610;2023-05-09T01:37:17;13.57;;;6.00;;
78183;SDS011;67442;44.570;18.610;2023-05-09T01:39:48;13.65;;;5.95;;
78183;SDS011;67442;44.570;18.610;2023-05-09T01:42:19;12.80;;;5.97;;
78183;SDS011;67442;44.570;18.610;2023-05-09T01:44:46;10.88;;;5.90;;
78183;SDS011;67442;44.570;18.610;2023-05-09T01:47:14;10.40;;;5.68;;
78183;SDS011;67442;44.570;18.610;2023-05-09T01:49:47;12.68;;;6.05;;
78183;SDS011;67442;44.570;18.610;2023-05-09T01:52:17;10.63;;;6.07;;
78183;SDS011;67442;44.570;18.610;2023-05-09T01:54:46;11.18;;;5.85;;
78183;SDS011;67442;44.570;18.610;2023-05-09T01:57:15;10.30;;;5.88;;
78183;SDS011;67442;44.570;18.610;2023-05-09T01:59:44;12.98;;;5.78;;
78183;SDS011;67442;44.570;18.610;2023-05-09T02:02:12;10.57;;;6.05;;
78183;SDS011;67442;44.570;18.610;2023-05-09T02:04:40;11.95;;;5.68;;
78183;SDS011;67442;44.570;18.610;2023-05-09T02:07:09;10.02;;;5.72;;
78183;SDS011;67442;44.570;18.610;2023-05-09T02:09:36;11.10;;;6.00;;
78183;SDS011;67442;44.570;18.610;2023-05-09T02:12:03;11.70;;;6.35;;
78183;SDS011;67442;44.570;18.610;2023-05-09T02:14:30;12.13;;;6.75;;
78183;SDS011;67442;44.570;18.610;2023-05-09T02:16:59;10.32;;;5.50;;
78183;SDS011;67442;44.570;18.610;2023-05-09T02:22:03;11.43;;;5.22;;
78183;SDS011;67442;44.570;18.610;2023-05-09T02:24:31;12.10;;;5.72;;
78183;SDS011;67442;44.570;18.610;2023-05-09T02:27:17;11.02;;;5.50;;
78183;SDS011;67442;44.570;18.610;2023-05-09T02:29:49;11.65;;;6.28;;
78183;SDS011;67442;44.570;18.610;2023-05-09T02:32:24;9.30;;;5.38;;
78183;SDS011;67442;44.570;18.610;2023-05-09T02:34:54;10.38;;;5.47;;
78183;SDS011;67442;44.570;18.610;2023-05-09T02:37:28;11.07;;;6.00;;
78183;SDS011;67442;44.570;18.610;2023-05-09T02:39:56;11.68;;;6.22;;
78183;SDS011;67442;44.570;18.610;2023-05-09T02:42:25;10.40;;;6.00;;
78183;SDS011;67442;44.570;18.610;2023-05-09T02:44:53;12.68;;;5.53;;
78183;SDS011;67442;44.570;18.610;2023-05-09T02:47:21;11.90;;;6.38;;
78183;SDS011;67442;44.570;18.610;2023-05-09T02:49:51;11.45;;;6.43;;
78183;SDS011;67442;44.570;18.610;2023-05-09T02:52:17;10.07;;;5.70;;
78183;SDS011;67442;44.570;18.610;2023-05-09T02:54:45;10.82;;;5.38;;
78183;SDS011;67442;44.570;18.610;2023-05-09T02:57:16;12.75;;;5.38;;
78183;SDS011;67442;44.570;18.610;2023-05-09T02:59:43;10.18;;;5.63;;
78183;SDS011;67442;44.570;18.610;2023-05-09T03:02:10;12.18;;;6.00;;
78183;SDS011;67442;44.570;18.610;2023-05-09T03:04:37;9.75;;;5.90;;
78183;SDS011;67442;44.570;18.610;2023-05-09T03:07:05;11.38;;;6.05;;
78183;SDS011;67442;44.570;18.610;2023-05-09T03:09:32;11.38;;;6.10;;
78183;SDS011;67442;44.570;18.610;2023-05-09T03:12:00;10.65;;;6.03;;
78183;SDS011;67442;44.570;18.610;2023-05-09T03:14:28;10.52;;;6.00;;
78183;SDS011;67442;44.570;18.610;2023-05-09T03:16:56;11.93;;;6.18;;
78183;SDS011;67442;44.570;18.610;2023-05-09T03:19:23;12.35;;;5.35;;
78183;SDS011;67442;44.570;18.610;2023-05-09T03:21:53;8.75;;;5.43;;
78183;SDS011;67442;44.570;18.610;2023-05-09T03:24:20;9.95;;;5.53;;
78183;SDS011;67442;44.570;18.610;2023-05-09T03:26:48;9.95;;;5.70;;
78183;SDS011;67442;44.570;18.610;2023-05-09T03:29:15;10.00;;;5.53;;
78183;SDS011;67442;44.570;18.610;2023-05-09T03:31:42;10.35;;;5.88;;
78183;SDS011;67442;44.570;18.610;2023-05-09T03:34:15;10.65;;;5.57;;
78183;SDS011;67442;44.570;18.610;2023-05-09T03:36:43;10.75;;;6.03;;
78183;SDS011;67442;44.570;18.610;2023-05-09T03:39:10;18.05;;;6.20;;
78183;SDS011;67442;44.570;18.610;2023-05-09T03:41:38;13.85;;;6.40;;
78183;SDS011;67442;44.570;18.610;2023-05-09T03:44:05;10.30;;;5.55;;
78183;SDS011;67442;44.570;18.610;2023-05-09T03:46:37;11.77;;;6.32;;
78183;SDS011;67442;44.570;18.610;2023-05-09T03:49:08;12.55;;;5.82;;
78183;SDS011;67442;44.570;18.610;2023-05-09T03:51:35;11.35;;;5.90;;
78183;SDS011;67442;44.570;18.610;2023-05-09T03:54:03;11.63;;;5.55;;
78183;SDS011;67442;44.570;18.610;2023-05-09T03:56:30;10.32;;;5.65;;
78183;SDS011;67442;44.570;18.610;2023-05-09T03:58:58;10.18;;;6.03;;
78183;SDS011;67442;44.570;18.610;2023-05-09T04:01:29;9.50;;;5.43;;
78183;SDS011;67442;44.570;18.610;2023-05-09T04:04:00;11.70;;;5.75;;
78183;SDS011;67442;44.570;18.610;2023-05-09T04:06:27;11.20;;;5.90;;
78183;SDS011;67442;44.570;18.610;2023-05-09T04:08:55;9.80;;;5.43;;
78183;SDS011;67442;44.570;18.610;2023-05-09T04:11:22;10.60;;;5.65;;
78183;SDS011;67442;44.570;18.610;2023-05-09T04:13:50;12.73;;;5.80;;
78183;SDS011;67442;44.570;18.610;2023-05-09T04:16:17;11.35;;;6.07;;
78183;SDS011;67442;44.570;18.610;2023-05-09T04:18:48;12.20;;;6.45;;
78183;SDS011;67442;44.570;18.610;2023-05-09T04:21:15;14.52;;;6.13;;
78183;SDS011;67442;44.570;18.610;2023-05-09T04:23:42;10.80;;;5.47;;
78183;SDS011;67442;44.570;18.610;2023-05-09T04:26:13;11.85;;;6.18;;
78183;SDS011;67442;44.570;18.610;2023-05-09T04:28:42;12.45;;;6.13;;
78183;SDS011;67442;44.570;18.610;2023-05-09T04:31:09;11.32;;;6.00;;
78183;SDS011;67442;44.570;18.610;2023-05-09T04:33:41;12.23;;;6.18;;
78183;SDS011;67442;44.570;18.610;2023-05-09T04:36:08;14.90;;;6.50;;
78183;SDS011;67442;44.570;18.610;2023-05-09T04:38:35;17.88;;;6.68;;
78183;SDS011;67442;44.570;18.610;2023-05-09T04:41:06;14.25;;;6.82;;
78183;SDS011;67442;44.570;18.610;2023-05-09T04:43:34;14.10;;;6.22;;
78183;SDS011;67442;44.570;18.610;2023-05-09T04:46:01;12.80;;;7.00;;
78183;SDS011;67442;44.570;18.610;2023-05-09T04:48:32;37.47;;;11.05;;
78183;SDS011;67442;44.570;18.610;2023-05-09T04:50:59;138.40;;;23.30;;
78183;SDS011;67442;44.570;18.610;2023-05-09T04:53:26;194.05;;;35.25;;
78183;SDS011;67442;44.570;18.610;2023-05-09T04:55:54;212.10;;;35.72;;
78183;SDS011;67442;44.570;18.610;2023-05-09T04:58:21;228.90;;;40.78;;
78183;SDS011;67442;44.570;18.610;2023-05-09T05:00:50;208.13;;;39.60;;
78183;SDS011;67442;44.570;18.610;2023-05-09T05:03:17;220.40;;;40.28;;
78183;SDS011;67442;44.570;18.610;2023-05-09T05:05:44;193.85;;;38.67;;
78183;SDS011;67442;44.570;18.610;2023-05-09T05:08:11;201.43;;;36.67;;
78183;SDS011;67442;44.570;18.610;2023-05-09T05:10:38;180.50;;;36.33;;
78183;SDS011;67442;44.570;18.610;2023-05-09T05:13:06;156.38;;;32.70;;
78183;SDS011;67442;44.570;18.610;2023-05-09T05:15:36;152.80;;;31.63;;
78183;SDS011;67442;44.570;18.610;2023-05-09T05:18:03;154.50;;;32.17;;
78183;SDS011;67442;44.570;18.610;2023-05-09T05:20:31;153.73;;;31.92;;
78183;SDS011;67442;44.570;18.610;2023-05-09T05:22:58;141.85;;;31.35;;
78183;SDS011;67442;44.570;18.610;2023-05-09T05:25:25;150.20;;;30.48;;
78183;SDS011;67442;44.570;18.610;2023-05-09T05:27:52;136.48;;;29.40;;
78183;SDS011;67442;44.570;18.610;2023-05-09T05:30:19;130.75;;;27.95;;
78183;SDS011;67442;44.570;18.610;2023-05-09T05:32:47;127.22;;;28.65;;
78183;SDS011;67442;44.570;18.610;2023-05-09T05:35:14;120.88;;;26.73;;
78183;SDS011;67442;44.570;18.610;2023-05-09T05:37:41;118.78;;;28.38;;
78183;SDS011;67442;44.570;18.610;2023-05-09T05:40:09;106.75;;;25.83;;
78183;SDS011;67442;44.570;18.610;2023-05-09T05:42:40;111.82;;;25.38;;
78183;SDS011;67442;44.570;18.610;2023-05-09T05:45:08;114.72;;;25.15;;
78183;SDS011;67442;44.570;18.610;2023-05-09T05:47:36;104.82;;;24.65;;
78183;SDS011;67442;44.570;18.610;2023-05-09T05:50:05;106.20;;;24.05;;
78183;SDS011;67442;44.570;18.610;2023-05-09T05:52:37;105.65;;;23.80;;
78183;SDS011;67442;44.570;18.610;2023-05-09T05:55:04;88.03;;;22.77;;
78183;SDS011;67442;44.570;18.610;2023-05-09T05:57:33;105.60;;;23.40;;
78183;SDS011;67442;44.570;18.610;2023-05-09T06:00:06;95.47;;;22.52;;
78183;SDS011;67442;44.570;18.610;2023-05-09T06:02:36;103.32;;;22.08;;
78183;SDS011;67442;44.570;18.610;2023-05-09T06:05:04;95.55;;;23.52;;
78183;SDS011;67442;44.570;18.610;2023-05-09T06:07:33;104.03;;;25.30;;
78183;SDS011;67442;44.570;18.610;2023-05-09T06:10:01;116.80;;;27.35;;
78183;SDS011;67442;44.570;18.610;2023-05-09T06:12:29;106.00;;;27.98;;
78183;SDS011;67442;44.570;18.610;2023-05-09T06:14:56;109.93;;;27.35;;
78183;SDS011;67442;44.570;18.610;2023-05-09T06:17:28;108.00;;;27.35;;
78183;SDS011;67442;44.570;18.610;2023-05-09T06:20:00;99.72;;;25.05;;
78183;SDS011;67442;44.570;18.610;2023-05-09T06:22:29;102.18;;;26.73;;
78183;SDS011;67442;44.570;18.610;2023-05-09T06:24:57;93.10;;;24.65;;
78183;SDS011;67442;44.570;18.610;2023-05-09T06:27:25;91.07;;;24.98;;
78183;SDS011;67442;44.570;18.610;2023-05-09T06:29:56;84.97;;;25.63;;
78183;SDS011;67442;44.570;18.610;2023-05-09T06:32:27;100.20;;;25.83;;
78183;SDS011;67442;44.570;18.610;2023-05-09T06:34:54;96.82;;;24.95;;
78183;SDS011;67442;44.570;18.610;2023-05-09T06:37:22;95.18;;;25.58;;
78183;SDS011;67442;44.570;18.610;2023-05-09T06:39:49;96.88;;;25.35;;
78183;SDS011;67442;44.570;18.610;2023-05-09T06:42:17;85.72;;;23.88;;
78183;SDS011;67442;44.570;18.610;2023-05-09T06:44:44;81.25;;;23.00;;
78183;SDS011;67442;44.570;18.610;2023-05-09T06:47:11;94.78;;;24.45;;
78183;SDS011;67442;44.570;18.610;2023-05-09T06:49:38;89.90;;;25.23;;
78183;SDS011;67442;44.570;18.610;2023-05-09T06:52:09;87.03;;;23.52;;
78183;SDS011;67442;44.570;18.610;2023-05-09T06:54:40;86.82;;;24.02;;
78183;SDS011;67442;44.570;18.610;2023-05-09T06:57:07;75.40;;;22.95;;
78183;SDS011;67442;44.570;18.610;2023-05-09T06:59:35;82.47;;;22.75;;
78183;SDS011;67442;44.570;18.610;2023-05-09T07:02:01;86.20;;;23.08;;
78183;SDS011;67442;44.570;18.610;2023-05-09T07:04:29;80.72;;;22.80;;
78183;SDS011;67442;44.570;18.610;2023-05-09T07:06:56;74.13;;;21.95;;
78183;SDS011;67442;44.570;18.610;2023-05-09T07:09:25;79.25;;;22.23;;
78183;SDS011;67442;44.570;18.610;2023-05-09T07:11:56;66.97;;;22.23;;
78183;SDS011;67442;44.570;18.610;2023-05-09T07:14:40;78.80;;;22.50;;
78183;SDS011;67442;44.570;18.610;2023-05-09T07:17:11;77.57;;;22.05;;
78183;SDS011;67442;44.570;18.610;2023-05-09T07:19:42;65.10;;;19.80;;
78183;SDS011;67442;44.570;18.610;2023-05-09T07:22:09;70.85;;;20.88;;
78183;SDS011;67442;44.570;18.610;2023-05-09T07:24:37;64.07;;;20.80;;
78183;SDS011;67442;44.570;18.610;2023-05-09T07:27:05;73.68;;;21.10;;
78183;SDS011;67442;44.570;18.610;2023-05-09T07:29:32;71.75;;;21.75;;
78183;SDS011;67442;44.570;18.610;2023-05-09T07:32:09;73.40;;;18.98;;
78183;SDS011;67442;44.570;18.610;2023-05-09T07:34:40;69.10;;;20.73;;
78183;SDS011;67442;44.570;18.610;2023-05-09T07:37:07;66.55;;;20.65;;
78183;SDS011;67442;44.570;18.610;2023-05-09T07:39:38;55.58;;;18.05;;
78183;SDS011;67442;44.570;18.610;2023-05-09T07:42:05;73.78;;;20.33;;
78183;SDS011;67442;44.570;18.610;2023-05-09T07:44:33;63.67;;;18.67;;
78183;SDS011;67442;44.570;18.610;2023-05-09T07:47:04;61.15;;;18.80;;
78183;SDS011;67442;44.570;18.610;2023-05-09T07:49:31;55.53;;;19.27;;
78183;SDS011;67442;44.570;18.610;2023-05-09T07:51:58;60.83;;;18.58;;
78183;SDS011;67442;44.570;18.610;2023-05-09T07:54:25;64.32;;;19.27;;
78183;SDS011;67442;44.570;18.610;2023-05-09T07:56:53;55.20;;;19.10;;
78183;SDS011;67442;44.570;18.610;2023-05-09T07:59:23;60.25;;;18.50;;
78183;SDS011;67442;44.570;18.610;2023-05-09T08:01:55;56.42;;;18.80;;
78183;SDS011;67442;44.570;18.610;2023-05-09T08:04:26;58.25;;;19.85;;
78183;SDS011;67442;44.570;18.610;2023-05-09T08:06:52;60.45;;;18.55;;
78183;SDS011;67442;44.570;18.610;2023-05-09T08:09:20;55.70;;;18.20;;
78183;SDS011;67442;44.570;18.610;2023-05-09T08:11:47;45.80;;;17.42;;
78183;SDS011;67442;44.570;18.610;2023-05-09T08:14:15;55.22;;;17.77;;
78183;SDS011;67442;44.570;18.610;2023-05-09T08:16:42;58.42;;;18.45;;
78183;SDS011;67442;44.570;18.610;2023-05-09T08:19:09;55.30;;;17.50;;
78183;SDS011;67442;44.570;18.610;2023-05-09T08:21:40;60.05;;;17.65;;
78183;SDS011;67442;44.570;18.610;2023-05-09T08:24:07;48.28;;;17.63;;
78183;SDS011;67442;44.570;18.610;2023-05-09T08:26:34;50.17;;;17.00;;
78183;SDS011;67442;44.570;18.610;2023-05-09T08:29:01;46.55;;;16.88;;
78183;SDS011;67442;44.570;18.610;2023-05-09T08:31:32;52.70;;;16.67;;
78183;SDS011;67442;44.570;18.610;2023-05-09T08:34:03;53.08;;;16.95;;
78183;SDS011;67442;44.570;18.610;2023-05-09T08:36:34;48.03;;;17.27;;
78183;SDS011;67442;44.570;18.610;2023-05-09T08:39:01;56.92;;;17.60;;
78183;SDS011;67442;44.570;18.610;2023-05-09T08:41:32;42.22;;;16.73;;
78183;SDS011;67442;44.570;18.610;2023-05-09T08:44:00;49.70;;;17.23;;
78183;SDS011;67442;44.570;18.610;2023-05-09T08:46:29;48.30;;;16.90;;
78183;SDS011;67442;44.570;18.610;2023-05-09T08:48:59;50.92;;;15.98;;
78183;SDS011;67442;44.570;18.610;2023-05-09T08:51:30;44.63;;;16.63;;
78183;SDS011;67442;44.570;18.610;2023-05-09T08:54:01;45.05;;;15.43;;
78183;SDS011;67442;44.570;18.610;2023-05-09T08:56:31;40.60;;;15.15;;
78183;SDS011;67442;44.570;18.610;2023-05-09T08:59:00;40.45;;;15.00;;
78183;SDS011;67442;44.570;18.610;2023-05-09T09:01:27;42.17;;;15.75;;
78183;SDS011;67442;44.570;18.610;2023-05-09T09:03:54;44.58;;;16.25;;
78183;SDS011;67442;44.570;18.610;2023-05-09T09:06:27;35.78;;;15.57;;
78183;SDS011;67442;44.570;18.610;2023-05-09T09:08:55;46.47;;;15.80;;
78183;SDS011;67442;44.570;18.610;2023-05-09T09:11:27;38.55;;;14.85;;
78183;SDS011;67442;44.570;18.610;2023-05-09T09:13:55;44.78;;;15.50;;
78183;SDS011;67442;44.570;18.610;2023-05-09T09:16:27;39.15;;;14.00;;
78183;SDS011;67442;44.570;18.610;2023-05-09T09:18:56;43.22;;;16.45;;
78183;SDS011;67442;44.570;18.610;2023-05-09T09:21:26;43.20;;;14.27;;
78183;SDS011;67442;44.570;18.610;2023-05-09T09:23:54;41.75;;;14.07;;
78183;SDS011;67442;44.570;18.610;2023-05-09T09:26:23;42.80;;;14.45;;
78183;SDS011;67442;44.570;18.610;2023-05-09T09:28:54;37.33;;;13.35;;
78183;SDS011;67442;44.570;18.610;2023-05-09T09:31:25;34.03;;;14.45;;
78183;SDS011;67442;44.570;18.610;2023-05-09T09:33:59;38.65;;;14.85;;
78183;SDS011;67442;44.570;18.610;2023-05-09T09:36:30;43.38;;;14.80;;
78183;SDS011;67442;44.570;18.610;2023-05-09T09:39:02;34.95;;;14.35;;
78183;SDS011;67442;44.570;18.610;2023-05-09T09:43:57;36.33;;;13.35;;
78183;SDS011;67442;44.570;18.610;2023-05-09T09:46:24;39.72;;;13.98;;
78183;SDS011;67442;44.570;18.610;2023-05-09T09:48:52;36.90;;;13.23;;
78183;SDS011;67442;44.570;18.610;2023-05-09T09:51:22;43.60;;;14.60;;
78183;SDS011;67442;44.570;18.610;2023-05-09T09:53:54;40.50;;;14.60;;
78183;SDS011;67442;44.570;18.610;2023-05-09T09:56:21;37.72;;;13.20;;
78183;SDS011;67442;44.570;18.610;2023-05-09T09:59:26;42.63;;;14.23;;
78183;SDS011;67442;44.570;18.610;2023-05-09T10:02:01;34.72;;;13.20;;
78183;SDS011;67442;44.570;18.610;2023-05-09T10:04:36;34.10;;;13.38;;
78183;SDS011;67442;44.570;18.610;2023-05-09T10:07:04;36.35;;;14.35;;
78183;SDS011;67442;44.570;18.610;2023-05-09T10:09:33;38.20;;;13.60;;
78183;SDS011;67442;44.570;18.610;2023-05-09T10:12:07;35.30;;;14.00;;
78183;SDS011;67442;44.570;18.610;2023-05-09T10:14:37;35.97;;;13.30;;
78183;SDS011;67442;44.570;18.610;2023-05-09T10:17:14;34.75;;;13.20;;
78183;SDS011;67442;44.570;18.610;2023-05-09T10:19:49;34.15;;;12.77;;
78183;SDS011;67442;44.570;18.610;2023-05-09T10:22:21;29.30;;;12.38;;
78183;SDS011;67442;44.570;18.610;2023-05-09T10:25:02;33.85;;;13.23;;
78183;SDS011;67442;44.570;18.610;2023-05-09T10:27:40;38.30;;;13.02;;
78183;SDS011;67442;44.570;18.610;2023-05-09T10:30:16;33.20;;;12.82;;
78183;SDS011;67442;44.570;18.610;2023-05-09T10:32:53;31.67;;;12.73;;
78183;SDS011;67442;44.570;18.610;2023-05-09T10:35:30;33.03;;;12.35;;
78183;SDS011;67442;44.570;18.610;2023-05-09T10:38:05;33.15;;;13.30;;
78183;SDS011;67442;44.570;18.610;2023-05-09T10:40:32;31.33;;;11.68;;
78183;SDS011;67442;44.570;18.610;2023-05-09T10:43:00;32.50;;;11.75;;
78183;SDS011;67442;44.570;18.610;2023-05-09T10:45:26;27.77;;;12.30;;
78183;SDS011;67442;44.570;18.610;2023-05-09T10:47:58;30.38;;;13.13;;
78183;SDS011;67442;44.570;18.610;2023-05-09T10:50:28;24.75;;;11.65;;
78183;SDS011;67442;44.570;18.610;2023-05-09T10:58:30;31.35;;;12.45;;
78183;SDS011;67442;44.570;18.610;2023-05-09T11:00:58;33.53;;;12.50;;
78183;SDS011;67442;44.570;18.610;2023-05-09T11:03:27;29.23;;;11.55;;
78183;SDS011;67442;44.570;18.610;2023-05-09T11:06:59;32.33;;;12.30;;
78183;SDS011;67442;44.570;18.610;2023-05-09T11:11:56;25.85;;;10.68;;
78183;SDS011;67442;44.570;18.610;2023-05-09T11:14:31;28.02;;;11.57;;
78183;SDS011;67442;44.570;18.610;2023-05-09T11:22:27;30.05;;;10.95;;
78183;SDS011;67442;44.570;18.610;2023-05-09T11:25:12;32.03;;;10.88;;
78183;SDS011;67442;44.570;18.610;2023-05-09T11:27:42;27.80;;;11.30;;
78183;SDS011;67442;44.570;18.610;2023-05-09T11:30:10;26.75;;;10.88;;
78183;SDS011;67442;44.570;18.610;2023-05-09T11:35:12;28.92;;;10.98;;
78183;SDS011;67442;44.570;18.610;2023-05-09T11:37:49;29.90;;;10.80;;
78183;SDS011;67442;44.570;18.610;2023-05-09T11:40:26;30.45;;;11.95;;
78183;SDS011;67442;44.570;18.610;2023-05-09T11:42:54;25.95;;;11.23;;
78183;SDS011;67442;44.570;18.610;2023-05-09T11:45:24;23.83;;;10.65;;
78183;SDS011;67442;44.570;18.610;2023-05-09T11:47:55;26.27;;;10.63;;
78183;SDS011;67442;44.570;18.610;2023-05-09T11:50:22;25.05;;;11.45;;
78183;SDS011;67442;44.570;18.610;2023-05-09T11:52:53;25.45;;;9.88;;
78183;SDS011;67442;44.570;18.610;2023-05-09T11:55:20;26.25;;;10.20;;
78183;SDS011;67442;44.570;18.610;2023-05-09T11:57:52;24.15;;;9.95;;
78183;SDS011;67442;44.570;18.610;2023-05-09T12:00:20;23.02;;;10.10;;
78183;SDS011;67442;44.570;18.610;2023-05-09T12:02:49;20.52;;;10.38;;
78183;SDS011;67442;44.570;18.610;2023-05-09T12:05:20;26.88;;;10.32;;
78183;SDS011;67442;44.570;18.610;2023-05-09T12:07:47;22.73;;;9.52;;
78183;SDS011;67442;44.570;18.610;2023-05-09T12:10:16;22.80;;;9.80;;
78183;SDS011;67442;44.570;18.610;2023-05-09T12:12:49;21.83;;;9.88;;
78183;SDS011;67442;44.570;18.610;2023-05-09T12:15:22;20.00;;;9.52;;
78183;SDS011;67442;44.570;18.610;2023-05-09T12:18:04;23.98;;;9.63;;
78183;SDS011;67442;44.570;18.610;2023-05-09T12:20:43;23.17;;;9.48;;
78183;SDS011;67442;44.570;18.610;2023-05-09T12:23:12;21.00;;;9.20;;
78183;SDS011;67442;44.570;18.610;2023-05-09T12:25:51;23.77;;;9.90;;
78183;SDS011;67442;44.570;18.610;2023-05-09T12:28:31;20.27;;;8.55;;
78183;SDS011;67442;44.570;18.610;2023-05-09T12:30:59;29.38;;;9.73;;
78183;SDS011;67442;44.570;18.610;2023-05-09T12:33:27;20.25;;;8.50;;
78183;SDS011;67442;44.570;18.610;2023-05-09T12:36:02;18.60;;;8.60;;
78183;SDS011;67442;44.570;18.610;2023-05-09T12:38:35;19.02;;;8.18;;
78183;SDS011;67442;44.570;18.610;2023-05-09T12:41:06;18.25;;;8.10;;
78183;SDS011;67442;44.570;18.610;2023-05-09T12:43:38;20.48;;;8.82;;
78183;SDS011;67442;44.570;18.610;2023-05-09T12:46:06;18.95;;;8.48;;
78183;SDS011;67442;44.570;18.610;2023-05-09T12:48:34;15.85;;;7.97;;
78183;SDS011;67442;44.570;18.610;2023-05-09T12:51:05;18.27;;;7.80;;
78183;SDS011;67442;44.570;18.610;2023-05-09T12:53:35;16.17;;;7.80;;
78183;SDS011;67442;44.570;18.610;2023-05-09T12:56:04;17.42;;;7.82;;
78183;SDS011;67442;44.570;18.610;2023-05-09T12:58:38;16.50;;;7.95;;
78183;SDS011;67442;44.570;18.610;2023-05-09T13:01:12;16.63;;;7.85;;
78183;SDS011;67442;44.570;18.610;2023-05-09T13:03:39;17.20;;;7.85;;
78183;SDS011;67442;44.570;18.610;2023-05-09T13:06:11;19.30;;;7.60;;
78183;SDS011;67442;44.570;18.610;2023-05-09T13:08:39;17.35;;;7.97;;
78183;SDS011;67442;44.570;18.610;2023-05-09T13:11:08;14.50;;;7.13;;
78183;SDS011;67442;44.570;18.610;2023-05-09T13:13:37;16.55;;;6.93;;
78183;SDS011;67442;44.570;18.610;2023-05-09T13:16:04;15.38;;;7.07;;
78183;SDS011;67442;44.570;18.610;2023-05-09T13:18:32;14.18;;;6.78;;
78183;SDS011;67442;44.570;18.610;2023-05-09T13:20:59;15.32;;;7.50;;
78183;SDS011;67442;44.570;18.610;2023-05-09T13:23:28;13.77;;;6.82;;
78183;SDS011;67442;44.570;18.610;2023-05-09T13:25:55;17.15;;;6.93;;
78183;SDS011;67442;44.570;18.610;2023-05-09T13:28:22;16.48;;;6.88;;
78183;SDS011;67442;44.570;18.610;2023-05-09T13:30:54;13.20;;;6.78;;
78183;SDS011;67442;44.570;18.610;2023-05-09T13:33:21;16.40;;;6.70;;
78183;SDS011;67442;44.570;18.610;2023-05-09T13:35:52;15.02;;;6.82;;
78183;SDS011;67442;44.570;18.610;2023-05-09T13:38:20;17.13;;;7.13;;
78183;SDS011;67442;44.570;18.610;2023-05-09T13:40:51;14.52;;;6.47;;
78183;SDS011;67442;44.570;18.610;2023-05-09T13:43:18;18.63;;;6.57;;
78183;SDS011;67442;44.570;18.610;2023-05-09T13:45:45;14.05;;;6.35;;
78183;SDS011;67442;44.570;18.610;2023-05-09T13:48:12;12.35;;;6.28;;
78183;SDS011;67442;44.570;18.610;2023-05-09T13:50:39;13.15;;;6.78;;
78183;SDS011;67442;44.570;18.610;2023-05-09T13:53:07;16.35;;;6.68;;
78183;SDS011;67442;44.570;18.610;2023-05-09T13:55:34;12.98;;;5.97;;
78183;SDS011;67442;44.570;18.610;2023-05-09T13:58:01;13.48;;;6.28;;
78183;SDS011;67442;44.570;18.610;2023-05-09T14:00:28;12.32;;;6.55;;
78183;SDS011;67442;44.570;18.610;2023-05-09T14:02:55;13.73;;;5.97;;
78183;SDS011;67442;44.570;18.610;2023-05-09T14:05:23;12.00;;;5.80;;
78183;SDS011;67442;44.570;18.610;2023-05-09T14:07:50;12.00;;;6.38;;
78183;SDS011;67442;44.570;18.610;2023-05-09T14:10:18;14.65;;;6.53;;
78183;SDS011;67442;44.570;18.610;2023-05-09T14:12:49;13.68;;;6.03;;
78183;SDS011;67442;44.570;18.610;2023-05-09T14:15:17;14.23;;;6.00;;
78183;SDS011;67442;44.570;18.610;2023-05-09T14:17:44;12.77;;;5.93;;
78183;SDS011;67442;44.570;18.610;2023-05-09T14:20:11;12.43;;;6.10;;
78183;SDS011;67442;44.570;18.610;2023-05-09T14:22:40;11.10;;;5.78;;
78183;SDS011;67442;44.570;18.610;2023-05-09T14:25:07;12.30;;;6.55;;
78183;SDS011;67442;44.570;18.610;2023-05-09T14:27:39;13.25;;;5.88;;
78183;SDS011;67442;44.570;18.610;2023-05-09T14:30:06;13.90;;;6.07;;
78183;SDS011;67442;44.570;18.610;2023-05-09T14:32:37;14.15;;;6.43;;
78183;SDS011;67442;44.570;18.610;2023-05-09T14:35:05;13.93;;;5.65;;
78183;SDS011;67442;44.570;18.610;2023-05-09T14:37:35;13.35;;;6.03;;
78183;SDS011;67442;44.570;18.610;2023-05-09T14:40:06;10.18;;;5.25;;
78183;SDS011;67442;44.570;18.610;2023-05-09T14:42:36;10.45;;;5.20;;
78183;SDS011;67442;44.570;18.610;2023-05-09T14:45:03;11.07;;;5.82;;
78183;SDS011;67442;44.570;18.610;2023-05-09T14:47:35;13.98;;;6.05;;
78183;SDS011;67442;44.570;18.610;2023-05-09T14:50:02;11.23;;;5.63;;
78183;SDS011;67442;44.570;18.610;2023-05-09T14:52:31;10.07;;;5.53;;
78183;SDS011;67442;44.570;18.610;2023-05-09T14:54:59;14.20;;;5.72;;
78183;SDS011;67442;44.570;18.610;2023-05-09T14:57:30;11.27;;;5.78;;
78183;SDS011;67442;44.570;18.610;2023-05-09T14:59:58;12.27;;;5.68;;
78183;SDS011;67442;44.570;18.610;2023-05-09T15:02:29;14.23;;;5.28;;
78183;SDS011;67442;44.570;18.610;2023-05-09T15:04:57;11.00;;;5.63;;